createdAt,value
2018-05-26T06:12:05.606Z,78.30
2018-05-26T06:14:40.603Z,77.90
2018-05-26T06:17:14.945Z,77.20
2018-05-26T06:19:49.182Z,77.80
2018-05-26T06:22:23.498Z,77.00
2018-05-26T06:24:57.938Z,76.90
2018-05-26T06:27:32.237Z,75.80
2018-05-26T06:30:06.557Z,75.20
2018-05-26T06:32:40.878Z,74.50
2018-05-26T06:35:15.211Z,74.10
2018-05-26T06:37:49.455Z,73.10
2018-05-26T06:40:23.827Z,70.50
2018-05-26T06:42:58.020Z,71.40
2018-05-26T06:45:32.395Z,71.00
2018-05-26T06:48:06.572Z,70.50
2018-05-26T06:50:40.794Z,72.60
2018-05-26T06:53:15.214Z,68.00
2018-05-26T06:55:50.269Z,69.20
2018-05-26T06:58:24.650Z,69.20
2018-05-26T07:00:58.989Z,68.10
2018-05-26T07:03:33.301Z,67.70
2018-05-26T07:06:07.703Z,66.10
2018-05-26T07:08:41.992Z,64.40
2018-05-26T07:11:16.282Z,65.30
2018-05-26T07:13:50.441Z,66.50
2018-05-26T07:16:24.739Z,63.40
2018-05-26T07:18:59.671Z,64.50
2018-05-26T07:21:33.913Z,63.80
2018-05-26T07:24:08.143Z,63.40
2018-05-26T07:26:42.335Z,61.40
2018-05-26T07:29:16.607Z,60.90
2018-05-26T07:31:51.058Z,63.00
2018-05-26T07:34:25.370Z,60.60
2018-05-26T07:36:59.983Z,61.30
2018-05-26T07:39:34.857Z,60.00
2018-05-26T07:42:09.153Z,60.00
2018-05-26T07:44:43.353Z,60.70
2018-05-26T07:47:18.631Z,59.50
2018-05-26T07:49:53.701Z,60.60
2018-05-26T07:52:28.314Z,61.60
2018-05-26T07:55:06.400Z,59.90
2018-05-26T07:57:40.773Z,60.10
2018-05-26T08:00:15.041Z,60.50
2018-05-26T08:02:49.344Z,58.50
2018-05-26T08:05:23.580Z,58.80
2018-05-26T08:07:57.750Z,57.70
2018-05-26T08:10:31.918Z,57.80
2018-05-26T08:13:06.174Z,57.00
2018-05-26T08:15:40.581Z,55.80
2018-05-26T08:18:14.791Z,56.00
2018-05-26T08:20:49.640Z,55.10
2018-05-26T08:23:23.933Z,55.10
2018-05-26T08:25:58.862Z,54.80
2018-05-26T08:28:33.190Z,54.70
2018-05-26T08:31:08.122Z,53.50
2018-05-26T08:33:42.231Z,53.50
2018-05-26T08:36:16.448Z,53.40
2018-05-26T08:38:51.601Z,53.40
2018-05-26T08:41:25.902Z,53.40
2018-05-26T08:44:00.206Z,53.20
2018-05-26T08:46:34.525Z,52.40
2018-05-26T08:49:08.741Z,52.50
2018-05-26T08:51:43.902Z,53.40
2018-05-26T08:54:18.106Z,52.70
2018-05-26T08:56:54.149Z,50.20
2018-05-26T08:59:28.571Z,49.10
2018-05-26T09:02:03.618Z,51.20
2018-05-26T09:04:37.818Z,51.20
2018-05-26T09:07:11.996Z,48.80
2018-05-26T09:09:46.347Z,48.50
2018-05-26T09:12:20.462Z,50.80
2018-05-26T09:14:54.779Z,50.40
2018-05-26T09:17:29.248Z,47.20
2018-05-26T09:20:09.807Z,48.30
2018-05-26T09:22:44.092Z,47.70
2018-05-26T09:25:18.419Z,47.90
2018-05-26T09:27:53.315Z,47.80
2018-05-26T09:30:27.631Z,47.80
2018-05-26T09:33:01.863Z,49.60
2018-05-26T09:35:36.159Z,46.80
2018-05-26T09:38:10.477Z,48.10
2018-05-26T09:40:44.794Z,46.60
2018-05-26T09:43:19.050Z,47.50
2018-05-26T09:45:54.055Z,48.40
2018-05-26T09:48:28.283Z,48.40
2018-05-26T09:51:02.568Z,47.40
2018-05-26T09:53:37.583Z,46.50
2018-05-26T09:56:13.553Z,45.10
2018-05-26T09:58:47.858Z,45.10
2018-05-26T10:01:22.254Z,45.10
2018-05-26T10:03:56.503Z,46.60
2018-05-26T10:06:31.797Z,46.90
2018-05-26T10:09:05.947Z,46.90
2018-05-26T10:11:40.545Z,46.20
2018-05-26T10:14:14.693Z,44.80
2018-05-26T10:16:50.240Z,42.40
2018-05-26T10:19:25.233Z,42.40
2018-05-26T10:22:00.727Z,42.90
2018-05-26T10:24:34.830Z,42.90
2018-05-26T10:27:09.715Z,41.80
2018-05-26T10:29:44.077Z,41.80
2018-05-26T10:32:18.246Z,39.90
2018-05-26T10:34:53.126Z,41.20
2018-05-26T10:37:27.525Z,41.10
2018-05-26T10:40:01.738Z,39.80
2018-05-26T10:42:35.962Z,41.40
2018-05-26T10:45:10.779Z,40.30
2018-05-26T10:47:44.836Z,40.60
2018-05-26T10:50:19.126Z,39.20
2018-05-26T10:52:53.238Z,40.90
2018-05-26T10:55:27.534Z,41.80
2018-05-26T10:58:01.951Z,40.60
2018-05-26T11:00:36.071Z,40.20
2018-05-26T11:03:10.273Z,40.10
2018-05-26T11:05:44.525Z,41.00
2018-05-26T11:08:18.852Z,40.50
2018-05-26T11:10:53.040Z,38.50
2018-05-26T11:13:27.475Z,39.50
2018-05-26T11:16:01.518Z,37.90
2018-05-26T11:18:35.869Z,38.10
2018-05-26T11:21:10.105Z,37.80
2018-05-26T11:23:45.906Z,37.40
2018-05-26T11:26:20.147Z,37.30
2018-05-26T11:28:54.432Z,35.90
2018-05-26T11:31:28.703Z,35.90
2018-05-26T11:34:03.573Z,36.40
2018-05-26T11:36:37.770Z,36.40
2018-05-26T11:39:12.708Z,36.20
2018-05-26T11:41:46.991Z,36.20
2018-05-26T11:44:22.046Z,35.50
2018-05-26T11:46:56.189Z,35.50
2018-05-26T11:49:31.182Z,36.30
2018-05-26T11:52:05.429Z,36.30
2018-05-26T11:54:39.766Z,36.90
2018-05-26T11:57:14.873Z,33.90
2018-05-26T11:59:49.135Z,37.30
2018-05-26T12:02:23.431Z,33.40
2018-05-26T12:04:58.782Z,34.00
2018-05-26T12:07:32.997Z,33.90
2018-05-26T12:10:07.270Z,33.10
2018-05-26T12:12:42.345Z,34.40
2018-05-26T12:15:16.480Z,34.30
2018-05-26T12:17:50.634Z,34.40
2018-05-26T12:20:24.874Z,33.90
2018-05-26T12:22:59.286Z,34.00
2018-05-26T12:25:33.528Z,33.60
2018-05-26T12:28:07.840Z,33.90
2018-05-26T12:30:42.143Z,34.40
2018-05-26T12:33:16.557Z,34.30
2018-05-26T12:35:51.690Z,35.10
2018-05-26T12:38:25.735Z,35.10
2018-05-26T12:41:00.740Z,33.70
2018-05-26T12:43:35.085Z,34.40
2018-05-26T12:46:09.399Z,34.80
2018-05-26T12:48:43.678Z,34.50
2018-05-26T12:51:17.948Z,33.50
2018-05-26T12:53:52.171Z,35.30
2018-05-26T12:56:26.434Z,35.20
2018-05-26T12:59:00.842Z,34.40
2018-05-26T13:01:35.075Z,34.90
2018-05-26T13:04:09.157Z,33.50
2018-05-26T13:06:44.074Z,32.30
2018-05-26T13:09:19.030Z,30.90
2018-05-26T13:11:53.190Z,30.80
2018-05-26T13:14:27.775Z,33.60
2018-05-26T13:17:01.946Z,33.70
2018-05-26T13:19:36.171Z,33.00
2018-05-26T13:22:10.517Z,34.80
2018-05-26T13:24:44.698Z,33.70
2018-05-26T13:27:19.059Z,33.00
2018-05-26T13:29:53.976Z,32.50
2018-05-26T13:32:28.199Z,32.50
2018-05-26T13:35:02.297Z,33.70
2018-05-26T13:37:37.238Z,33.50
2018-05-26T13:40:11.557Z,33.50
2018-05-26T13:42:45.837Z,34.00
2018-05-26T13:45:20.069Z,34.80
2018-05-26T13:47:54.325Z,36.30
2018-05-26T13:50:28.594Z,35.90
2018-05-26T13:53:02.910Z,35.20
2018-05-26T13:55:37.148Z,35.20
2018-05-26T13:58:11.449Z,34.90
2018-05-26T14:00:45.707Z,33.00
2018-05-26T14:03:19.871Z,33.70
2018-05-26T14:05:54.045Z,34.40
2018-05-26T14:08:29.588Z,34.40
2018-05-26T14:11:03.902Z,34.20
2018-05-26T14:13:38.246Z,34.90
2018-05-26T14:16:12.474Z,35.10
2018-05-26T14:18:46.697Z,36.40
2018-05-26T14:21:21.034Z,36.10
2018-05-26T14:23:55.303Z,37.20
2018-05-26T14:26:29.667Z,37.30
2018-05-26T14:29:03.849Z,36.20
2018-05-26T14:31:38.145Z,36.70
2018-05-26T14:34:12.457Z,35.50
2018-05-26T14:36:46.804Z,36.40
2018-05-26T14:39:20.965Z,36.20
2018-05-26T14:41:55.333Z,37.80
2018-05-26T14:44:29.433Z,38.30
2018-05-26T14:47:03.666Z,39.00
2018-05-26T14:49:37.728Z,39.40
2018-05-26T14:52:12.822Z,38.20
2018-05-26T14:54:46.901Z,38.20
2018-05-26T14:57:21.331Z,37.60
2018-05-26T14:59:55.643Z,37.10
2018-05-26T15:02:29.988Z,37.70
2018-05-26T15:05:04.181Z,35.60
2018-05-26T15:07:38.594Z,36.40
2018-05-26T15:10:12.883Z,36.10
2018-05-26T15:12:47.252Z,37.90
2018-05-26T15:15:21.647Z,35.90
2018-05-26T15:17:55.752Z,36.10
2018-05-26T15:20:30.003Z,36.00
2018-05-26T15:23:05.753Z,37.10
2018-05-26T15:25:40.770Z,38.60
2018-05-26T15:28:15.996Z,39.00
2018-05-26T15:30:50.687Z,39.00
2018-05-26T15:33:24.933Z,39.40
2018-05-26T15:35:59.137Z,39.30
2018-05-26T15:38:33.349Z,39.30
2018-05-26T15:41:07.557Z,38.70
2018-05-26T15:43:41.681Z,39.30
2018-05-26T15:46:16.096Z,39.70
2018-05-26T15:48:50.161Z,39.30
2018-05-26T15:51:24.534Z,39.60
2018-05-26T15:53:58.597Z,38.90
2018-05-26T15:56:32.749Z,39.70
2018-05-26T15:59:07.139Z,39.50
2018-05-26T16:01:41.399Z,39.90
2018-05-26T16:04:15.717Z,39.70
2018-05-26T16:06:50.005Z,39.00
2018-05-26T16:09:24.491Z,39.70
2018-05-26T16:11:59.653Z,38.90
2018-05-26T16:14:33.900Z,39.30
2018-05-26T16:17:08.837Z,39.00
2018-05-26T16:19:43.900Z,40.40
2018-05-26T16:22:18.027Z,40.30
2018-05-26T16:24:52.300Z,38.00
2018-05-26T16:27:26.782Z,38.30
2018-05-26T16:30:01.005Z,38.50
2018-05-26T16:32:35.337Z,37.90
2018-05-26T16:35:09.511Z,38.70
2018-05-26T16:37:43.952Z,37.70
2018-05-26T16:40:18.302Z,36.80
2018-05-26T16:42:53.205Z,38.50
2018-05-26T16:45:28.546Z,38.40
2018-05-26T16:48:02.749Z,37.90
2018-05-26T16:50:37.170Z,38.50
2018-05-26T16:53:11.433Z,37.80
2018-05-26T16:55:45.547Z,37.60
2018-05-26T16:58:19.705Z,37.90
2018-05-26T17:00:53.907Z,37.20
2018-05-26T17:03:28.254Z,38.90
2018-05-26T17:06:02.461Z,37.40
2018-05-26T17:08:36.718Z,38.20
2018-05-26T17:11:11.024Z,38.20
2018-05-26T17:13:45.314Z,38.80
2018-05-26T17:16:19.466Z,38.70
2018-05-26T17:18:53.830Z,38.20
2018-05-26T17:21:28.159Z,36.70
2018-05-26T17:24:02.462Z,36.60
2018-05-26T17:26:37.185Z,37.20
2018-05-26T17:29:11.430Z,37.00
2018-05-26T17:31:45.789Z,37.70
2018-05-26T17:34:20.153Z,38.30
2018-05-26T17:36:54.464Z,38.00
2018-05-26T17:39:29.452Z,37.50
2018-05-26T17:42:03.841Z,37.80
2018-05-26T17:44:38.017Z,38.20
2018-05-26T17:47:12.230Z,38.00
2018-05-26T17:49:46.313Z,37.30
2018-05-26T17:52:20.633Z,37.20
2018-05-26T17:54:54.904Z,38.30
2018-05-26T17:57:31.814Z,37.80
2018-05-26T18:00:06.002Z,37.80
2018-05-26T18:02:40.173Z,38.00
2018-05-26T18:05:14.401Z,38.10
2018-05-26T18:07:48.603Z,38.20
2018-05-26T18:10:22.814Z,38.40
2018-05-26T18:12:57.148Z,38.00
2018-05-26T18:15:31.343Z,39.20
2018-05-26T18:18:06.262Z,37.90
2018-05-26T18:20:40.588Z,37.90
2018-05-26T18:23:14.914Z,38.30
2018-05-26T18:25:49.321Z,39.50
2018-05-26T18:28:23.566Z,39.00
2018-05-26T18:30:57.861Z,39.00
2018-05-26T18:33:32.162Z,39.40
2018-05-26T18:36:06.265Z,40.00
2018-05-26T18:38:40.507Z,39.80
2018-05-26T18:41:14.670Z,39.80
2018-05-26T18:43:48.809Z,40.80
2018-05-26T18:46:23.151Z,40.40
2018-05-26T18:48:57.522Z,41.10
2018-05-26T18:51:31.781Z,41.60
2018-05-26T18:54:06.806Z,42.40
2018-05-26T18:56:41.133Z,41.90
2018-05-26T18:59:15.227Z,42.50
2018-05-26T19:01:49.358Z,43.30
2018-05-26T19:04:23.735Z,43.70
2018-05-26T19:06:58.081Z,44.10
2018-05-26T19:09:32.314Z,43.60
2018-05-26T19:12:06.647Z,44.40
2018-05-26T19:14:40.889Z,44.50
2018-05-26T19:17:16.404Z,44.90
2018-05-26T19:19:51.683Z,45.50
2018-05-26T19:22:27.494Z,45.90
2018-05-26T19:25:02.911Z,47.20
2018-05-26T19:27:38.239Z,45.90
2018-05-26T19:32:49.139Z,45.80
2018-05-26T19:35:24.234Z,47.10
2018-05-26T19:37:59.707Z,45.70
2018-05-26T19:40:35.058Z,46.80
2018-05-26T19:43:10.491Z,46.00
2018-05-26T19:45:46.858Z,46.40
2018-05-26T19:48:23.000Z,46.60
2018-05-26T19:50:58.404Z,46.60
2018-05-26T19:53:33.698Z,46.70
2018-05-26T19:56:09.167Z,47.10
2018-05-26T19:58:44.133Z,47.40
2018-05-26T20:01:19.526Z,47.30
2018-05-26T20:03:54.542Z,47.70
2018-05-26T20:06:28.758Z,48.00
2018-05-26T20:09:04.221Z,47.80
